Time;durP1;ratioP1;P1;durP2;ratioP2;P2;SDS_P1;SDS_P2;PMS_P1;PMS_P2;Temp;Humidity;BMP_temperature;BMP_pressure;BME280_temperature;BME280_humidity;BME280_pressure;Samples;Min_cycle;Max_cycle;Signal;HPM_P1;HPM_P2
2022/09/24 00:02:20;;;;;;;8.10;6.73;;;12.50;99.90;;;;;;5043258;28;20683;-48
2022/09/24 00:04:47;;;;;;;7.17;6.43;;;12.50;99.90;;;;;;5031904;28;20200;-46
2022/09/24 00:07:14;;;;;;;8.87;7.73;;;12.50;99.90;;;;;;5044248;28;20321;-47
2022/09/24 00:09:41;;;;;;;7.33;6.63;;;12.50;99.90;;;;;;5044022;28;20747;-50
2022/09/24 00:12:11;;;;;;;8.17;7.27;;;12.50;99.90;;;;;;5045433;28;20272;-48
2022/09/24 00:14:38;;;;;;;9.37;7.03;;;12.40;99.90;;;;;;5043231;28;20195;-47
2022/09/24 00:17:06;;;;;;;7.67;6.73;;;12.40;99.90;;;;;;5045771;28;20222;-48
2022/09/24 00:19:33;;;;;;;10.30;6.90;;;12.40;99.90;;;;;;5030275;28;20328;-45
2022/09/24 00:22:00;;;;;;;8.07;7.13;;;12.40;99.90;;;;;;5046194;28;20234;-48
2022/09/24 00:27:12;;;;;;;8.37;7.07;;;12.40;99.90;;;;;;5044580;28;20218;-46
2022/09/24 00:29:39;;;;;;;7.73;6.90;;;12.40;99.90;;;;;;5044105;28;20192;-46
2022/09/24 00:32:09;;;;;;;7.67;6.37;;;12.40;99.90;;;;;;5045683;28;20211;-47
2022/09/24 00:34:36;;;;;;;9.57;7.03;;;12.40;99.90;;;;;;5042095;28;20198;-46
2022/09/24 00:37:03;;;;;;;9.47;7.40;;;12.40;99.90;;;;;;5031922;28;20249;-46
2022/09/24 00:39:30;;;;;;;10.70;6.93;;;12.40;99.90;;;;;;5041508;28;20572;-47
2022/09/24 00:41:57;;;;;;;10.70;8.07;;;12.40;99.90;;;;;;5045733;28;20199;-49
2022/09/24 00:44:52;;;;;;;8.57;6.80;;;12.40;99.90;;;;;;5040761;28;20671;-49
2022/09/24 00:47:31;;;;;;;8.63;7.40;;;12.40;99.90;;;;;;5042141;28;20780;-47
2022/09/24 00:50:14;;;;;;;8.13;7.33;;;12.40;99.90;;;;;;5045603;28;20198;-47
2022/09/24 00:52:45;;;;;;;8.33;7.43;;;12.40;99.90;;;;;;5029224;28;20215;-49
2022/09/24 00:55:13;;;;;;;9.27;7.50;;;12.30;99.90;;;;;;5042380;28;20283;-49
2022/09/24 00:57:42;;;;;;;7.97;7.17;;;12.30;99.90;;;;;;5042420;28;20256;-49
2022/09/24 01:00:10;;;;;;;8.60;7.20;;;12.30;99.90;;;;;;5044644;28;20195;-50
2022/09/24 01:02:41;;;;;;;9.03;7.77;;;12.30;99.90;;;;;;5042905;28;20187;-47
2022/09/24 01:05:09;;;;;;;12.50;7.90;;;12.30;99.90;;;;;;5043504;28;20683;-50
2022/09/24 01:07:36;;;;;;;8.90;8.00;;;12.30;99.90;;;;;;5030087;28;20519;-47
2022/09/24 01:10:04;;;;;;;10.77;8.07;;;12.20;99.90;;;;;;5044616;28;20707;-47
2022/09/24 01:12:40;;;;;;;8.73;8.00;;;12.20;99.90;;;;;;5041559;28;20505;-46
2022/09/24 01:15:19;;;;;;;10.90;7.83;;;12.30;99.90;;;;;;5043548;28;20195;-46
2022/09/24 01:17:59;;;;;;;10.13;8.30;;;12.20;99.90;;;;;;5044337;28;20271;-48
2022/09/24 01:20:50;;;;;;;9.53;7.93;;;12.20;99.90;;;;;;5040352;28;20195;-46
2022/09/24 01:23:38;;;;;;;9.67;7.87;;;12.20;99.90;;;;;;5032349;28;20274;-48
2022/09/24 01:26:20;;;;;;;9.27;7.77;;;12.20;99.90;;;;;;5041862;28;20222;-51
2022/09/24 01:29:05;;;;;;;9.17;7.63;;;12.20;99.90;;;;;;5044692;28;20296;-49
2022/09/24 01:31:40;;;;;;;10.00;8.40;;;12.20;99.90;;;;;;5041162;28;20234;-49
2022/09/24 01:34:09;;;;;;;14.47;8.57;;;12.20;99.90;;;;;;5043444;28;20195;-47
2022/09/24 01:36:38;;;;;;;10.30;7.73;;;12.20;99.90;;;;;;5041778;28;20294;-45
2022/09/24 01:39:07;;;;;;;10.20;8.70;;;12.20;99.90;;;;;;5043730;28;20195;-49
2022/09/24 01:41:37;;;;;;;10.27;8.53;;;12.20;99.90;;;;;;5033117;28;20267;-50
2022/09/24 01:44:06;;;;;;;8.83;7.83;;;12.20;99.90;;;;;;5043482;28;20660;-48
2022/09/24 01:46:37;;;;;;;10.63;8.53;;;12.20;99.90;;;;;;5041252;28;20374;-48
2022/09/24 01:49:05;;;;;;;10.47;8.70;;;12.10;99.90;;;;;;5043962;28;20198;-46
2022/09/24 01:51:37;;;;;;;9.03;8.17;;;12.10;99.90;;;;;;5040525;28;20183;-48
2022/09/24 01:54:10;;;;;;;9.47;8.30;;;12.10;99.90;;;;;;5043027;28;20799;-48
2022/09/24 01:56:42;;;;;;;9.13;8.07;;;12.10;99.90;;;;;;5028997;28;20544;-47
2022/09/24 01:59:15;;;;;;;9.63;8.07;;;12.10;99.90;;;;;;5043492;28;20198;-50
2022/09/24 02:01:49;;;;;;;9.53;8.53;;;12.20;99.90;;;;;;5042937;28;20348;-47
2022/09/24 02:04:19;;;;;;;10.97;8.13;;;12.20;99.90;;;;;;5040566;28;20199;-49
2022/09/24 02:06:50;;;;;;;8.67;7.83;;;12.20;99.90;;;;;;5043466;28;20265;-47
2022/09/24 02:09:32;;;;;;;9.23;7.73;;;12.20;99.90;;;;;;5041124;28;20528;-49
2022/09/24 02:12:03;;;;;;;9.03;7.73;;;12.20;99.90;;;;;;5030893;28;20226;-49
2022/09/24 02:14:32;;;;;;;12.70;7.70;;;12.10;99.90;;;;;;5039166;28;20188;-48
2022/09/24 02:17:02;;;;;;;11.60;8.63;;;12.10;99.90;;;;;;5043702;28;20269;-48
2022/09/24 02:19:30;;;;;;;9.10;8.20;;;12.10;99.90;;;;;;5039989;28;20915;-46
2022/09/24 02:21:58;;;;;;;9.43;8.53;;;12.10;99.90;;;;;;5043712;28;20199;-47
2022/09/24 02:24:31;;;;;;;8.47;7.60;;;12.10;99.90;;;;;;5038682;28;20198;-51
2022/09/24 02:26:59;;;;;;;9.33;8.40;;;12.10;99.90;;;;;;5031990;28;20227;-51
2022/09/24 02:29:26;;;;;;;9.20;8.13;;;12.10;99.90;;;;;;5039733;28;20195;-46
2022/09/24 02:31:56;;;;;;;9.67;8.27;;;12.10;99.90;;;;;;5043627;28;20645;-47
2022/09/24 02:34:28;;;;;;;8.53;7.63;;;12.20;99.90;;;;;;5039108;28;20566;-48
2022/09/24 02:36:59;;;;;;;8.73;7.93;;;12.20;99.90;;;;;;5043562;28;20291;-49
2022/09/24 02:39:26;;;;;;;9.67;8.73;;;12.20;99.90;;;;;;5039101;28;20191;-49
2022/09/24 02:41:55;;;;;;;9.43;8.53;;;12.10;99.90;;;;;;5030531;28;20200;-48
2022/09/24 02:44:23;;;;;;;9.80;8.80;;;12.10;99.90;;;;;;5038693;28;20191;-49
2022/09/24 02:46:50;;;;;;;9.73;8.00;;;12.10;99.90;;;;;;5043284;28;20211;-49
2022/09/24 02:49:17;;;;;;;8.90;7.80;;;12.10;99.90;;;;;;5041067;28;20249;-51
2022/09/24 02:51:45;;;;;;;10.87;8.40;;;12.10;99.90;;;;;;5042169;28;20283;-48
2022/09/24 02:54:13;;;;;;;8.57;7.70;;;12.10;99.90;;;;;;5040405;28;20191;-48
2022/09/24 02:56:40;;;;;;;8.80;7.90;;;12.00;99.90;;;;;;5041376;28;20235;-49
2022/09/24 02:59:07;;;;;;;9.43;8.07;;;12.10;99.90;;;;;;5030853;28;20563;-48
2022/09/24 03:01:35;;;;;;;9.73;7.97;;;12.10;99.90;;;;;;5040402;28;20195;-49
2022/09/24 03:04:02;;;;;;;10.43;7.43;;;12.10;99.90;;;;;;5042487;28;20183;-46
2022/09/24 03:06:30;;;;;;;9.17;7.30;;;12.10;99.90;;;;;;5039236;28;20762;-48
2022/09/24 03:08:58;;;;;;;9.33;8.23;;;12.10;99.90;;;;;;5043010;28;20275;-49
2022/09/24 03:11:25;;;;;;;8.33;7.37;;;12.10;99.90;;;;;;5039459;28;20590;-50
2022/09/24 03:13:52;;;;;;;9.43;7.57;;;12.10;99.90;;;;;;5029604;28;20722;-47
2022/09/24 03:16:18;;;;;;;9.03;8.13;;;12.10;99.90;;;;;;5040193;28;20212;-53
2022/09/24 03:18:46;;;;;;;8.03;7.20;;;12.10;99.90;;;;;;5042807;28;20206;-47
2022/09/24 03:21:15;;;;;;;9.07;8.13;;;12.10;99.90;;;;;;5041091;28;20202;-50
2022/09/24 03:23:42;;;;;;;9.13;8.10;;;12.10;99.90;;;;;;5038019;28;20202;-46
2022/09/24 03:26:10;;;;;;;9.37;8.33;;;12.10;99.90;;;;;;5040972;28;20243;-47
2022/09/24 03:28:37;;;;;;;12.93;8.90;;;12.00;99.90;;;;;;5027877;28;21412;-52
2022/09/24 03:31:03;;;;;;;8.73;7.83;;;12.00;99.90;;;;;;5042900;28;20195;-50
2022/09/24 03:33:33;;;;;;;9.97;8.60;;;12.00;99.90;;;;;;5038067;28;20211;-48
2022/09/24 03:36:01;;;;;;;9.17;7.37;;;12.00;99.90;;;;;;5042259;28;20215;-50
2022/09/24 03:38:30;;;;;;;11.03;8.43;;;12.10;99.90;;;;;;5039101;28;20179;-46
2022/09/24 03:40:58;;;;;;;10.63;8.53;;;12.10;99.90;;;;;;5042690;28;20528;-47
2022/09/24 03:43:27;;;;;;;8.87;7.97;;;12.10;99.90;;;;;;5037918;28;20188;-48
2022/09/24 03:45:55;;;;;;;9.67;8.20;;;12.10;99.90;;;;;;5030633;28;20680;-48
2022/09/24 03:48:23;;;;;;;9.50;8.33;;;12.00;99.90;;;;;;5039182;28;20660;-49
2022/09/24 03:50:50;;;;;;;10.00;8.63;;;12.00;99.90;;;;;;5042752;28;20195;-46
2022/09/24 03:53:18;;;;;;;8.80;7.90;;;12.00;99.90;;;;;;5039394;28;20261;-48
2022/09/24 03:55:46;;;;;;;9.63;8.10;;;11.90;99.90;;;;;;5042026;28;20223;-47
2022/09/24 03:58:14;;;;;;;9.13;8.07;;;11.90;99.90;;;;;;5041220;28;20270;-53
2022/09/24 04:00:42;;;;;;;9.60;8.70;;;11.90;99.90;;;;;;5027071;28;20215;-47
2022/09/24 04:03:09;;;;;;;9.60;8.67;;;11.90;99.90;;;;;;5040622;28;20206;-48
2022/09/24 04:05:36;;;;;;;9.40;8.17;;;11.90;99.90;;;;;;5037244;28;20719;-45
2022/09/24 04:08:05;;;;;;;11.10;8.10;;;11.90;99.90;;;;;;5062796;28;20198;-46
2022/09/24 04:10:32;;;;;;;9.90;8.57;;;11.90;99.90;;;;;;5058820;28;20492;-46
2022/09/24 04:12:59;;;;;;;10.33;8.77;;;11.80;99.90;;;;;;5063914;28;20730;-45
2022/09/24 04:15:26;;;;;;;8.73;7.93;;;11.90;99.90;;;;;;5043534;28;20223;-48
2022/09/24 04:17:56;;;;;;;8.87;7.97;;;11.90;99.90;;;;;;5033183;28;20210;-48
2022/09/24 04:20:26;;;;;;;8.80;7.97;;;11.90;99.90;;;;;;5041015;28;20199;-51
2022/09/24 04:22:55;;;;;;;10.07;9.03;;;11.90;99.90;;;;;;5038950;28;20206;-49
2022/09/24 04:25:23;;;;;;;9.27;8.20;;;11.90;99.90;;;;;;5041674;28;20206;-48
2022/09/24 04:27:53;;;;;;;8.23;7.43;;;11.90;99.90;;;;;;5046152;28;20238;-50
2022/09/24 04:30:20;;;;;;;7.87;7.17;;;11.90;99.90;;;;;;5045630;28;20608;-48
2022/09/24 04:32:48;;;;;;;9.40;8.10;;;11.90;99.90;;;;;;5037854;28;20231;-49
2022/09/24 04:35:16;;;;;;;9.07;8.10;;;11.90;99.90;;;;;;5039324;28;20209;-46
2022/09/24 04:37:43;;;;;;;8.83;7.63;;;11.90;99.90;;;;;;5047001;28;20218;-51
2022/09/24 04:40:11;;;;;;;8.07;7.27;;;11.80;99.90;;;;;;5044267;28;20683;-51
2022/09/24 04:42:38;;;;;;;8.50;7.07;;;11.80;99.90;;;;;;5035675;28;20483;-49
2022/09/24 04:45:06;;;;;;;7.77;7.07;;;11.90;99.90;;;;;;5042907;28;20467;-46
2022/09/24 04:47:33;;;;;;;8.80;7.90;;;11.90;99.90;;;;;;5031377;28;20207;-46
2022/09/24 04:50:01;;;;;;;8.57;7.80;;;11.90;99.90;;;;;;5042758;28;20195;-46
2022/09/24 04:52:31;;;;;;;9.77;8.03;;;11.90;99.90;;;;;;5034273;28;20670;-48
2022/09/24 04:54:59;;;;;;;9.20;8.30;;;11.90;99.90;;;;;;5041061;28;20198;-48
2022/09/24 04:57:26;;;;;;;8.73;7.70;;;11.90;99.90;;;;;;5046011;28;20215;-46
2022/09/24 04:59:53;;;;;;;8.83;7.93;;;11.90;99.90;;;;;;5061652;28;20193;-48
2022/09/24 05:02:20;;;;;;;10.27;7.97;;;11.90;99.90;;;;;;5032439;28;20809;-50
2022/09/24 05:04:47;;;;;;;9.90;9.00;;;11.90;99.90;;;;;;5040296;28;20289;-48
2022/09/24 05:07:14;;;;;;;9.63;8.63;;;11.90;99.90;;;;;;5044983;28;20273;-47
2022/09/24 05:09:42;;;;;;;10.37;8.63;;;12.00;99.90;;;;;;5042199;28;20223;-47
2022/09/24 05:12:09;;;;;;;9.90;8.93;;;12.00;99.90;;;;;;5044159;28;20191;-46
2022/09/24 05:14:36;;;;;;;9.20;8.07;;;12.00;99.90;;;;;;5042174;28;20714;-48
2022/09/24 05:17:03;;;;;;;8.57;7.73;;;12.00;99.90;;;;;;5040269;28;20230;-50
2022/09/24 05:19:29;;;;;;;11.20;8.43;;;12.10;99.90;;;;;;5025694;28;20641;-47
2022/09/24 05:21:56;;;;;;;9.43;8.53;;;12.10;99.90;;;;;;5043855;28;20594;-46
2022/09/24 05:24:23;;;;;;;10.40;9.37;;;12.10;99.90;;;;;;5050739;28;20283;-48
2022/09/24 05:29:39;;;;;;;11.80;10.67;;;12.10;99.90;;;;;;5036883;28;20214;-48
2022/09/24 05:32:07;;;;;;;11.17;10.07;;;12.10;99.90;;;;;;5040515;28;20191;-48
2022/09/24 05:34:34;;;;;;;11.17;10.07;;;12.00;99.90;;;;;;5026442;28;20227;-47
2022/09/24 05:37:02;;;;;;;12.57;10.90;;;12.00;99.90;;;;;;5043191;28;20211;-47
2022/09/24 05:39:29;;;;;;;13.53;10.73;;;12.10;99.90;;;;;;5036370;28;20203;-49
2022/09/24 05:41:57;;;;;;;12.17;10.13;;;12.10;99.90;;;;;;5043884;28;20195;-45
2022/09/24 05:44:24;;;;;;;13.53;10.83;;;12.10;99.90;;;;;;5040705;28;20205;-49
2022/09/24 05:46:52;;;;;;;12.57;11.27;;;12.10;99.90;;;;;;5041927;28;20217;-49
2022/09/24 05:49:19;;;;;;;11.53;10.43;;;12.10;99.90;;;;;;5029761;28;20199;-48
2022/09/24 05:51:48;;;;;;;12.00;10.80;;;12.10;99.90;;;;;;5040887;28;20396;-46
2022/09/24 05:54:16;;;;;;;11.53;10.43;;;12.10;99.90;;;;;;5036779;28;20294;-49
2022/09/24 05:56:42;;;;;;;10.87;9.80;;;12.10;99.90;;;;;;5039748;28;20272;-48
2022/09/24 05:59:11;;;;;;;12.57;11.27;;;12.10;99.90;;;;;;5048603;28;20253;-50
2022/09/24 06:01:39;;;;;;;12.50;11.20;;;12.20;99.90;;;;;;5038990;28;20195;-45
2022/09/24 06:04:05;;;;;;;16.40;11.97;;;12.20;99.90;;;;;;5040784;28;20197;-50
2022/09/24 06:06:33;;;;;;;13.43;11.60;;;12.20;99.90;;;;;;5025967;28;20215;-48
2022/09/24 06:09:00;;;;;;;14.40;11.57;;;12.20;99.90;;;;;;5029802;28;20210;-49
2022/09/24 06:11:33;;;;;;;12.50;11.20;;;12.20;99.90;;;;;;5047645;28;20837;-48
2022/09/24 06:14:01;;;;;;;13.90;12.37;;;12.20;99.90;;;;;;5054350;28;20505;-49
2022/09/24 06:16:31;;;;;;;17.47;12.23;;;12.20;99.90;;;;;;5031174;28;20222;-47
2022/09/24 06:18:58;;;;;;;13.70;12.30;;;12.20;99.90;;;;;;5044527;28;20667;-47
2022/09/24 06:21:25;;;;;;;15.87;12.73;;;12.20;99.90;;;;;;5023534;28;20218;-47
2022/09/24 06:23:51;;;;;;;15.07;13.40;;;12.20;99.90;;;;;;5039928;28;20194;-46
2022/09/24 06:26:18;;;;;;;14.60;13.17;;;12.30;99.90;;;;;;5037459;28;20944;-50
2022/09/24 06:28:45;;;;;;;14.20;12.87;;;12.30;99.90;;;;;;5040278;28;20689;-49
2022/09/24 06:31:12;;;;;;;13.73;12.37;;;12.30;99.90;;;;;;5038997;28;20225;-51
2022/09/24 06:33:41;;;;;;;14.40;12.90;;;12.30;99.90;;;;;;5031933;28;20211;-48
2022/09/24 06:36:08;;;;;;;13.97;12.67;;;12.40;99.90;;;;;;5023849;28;20314;-48
2022/09/24 06:38:35;;;;;;;15.50;13.30;;;12.40;99.90;;;;;;5037341;28;20310;-46
2022/09/24 06:41:05;;;;;;;14.77;13.37;;;12.40;99.90;;;;;;5043194;28;20642;-46
2022/09/24 06:43:32;;;;;;;14.63;12.30;;;12.40;99.90;;;;;;5035854;28;20191;-46
2022/09/24 06:46:00;;;;;;;15.40;13.90;;;12.40;99.90;;;;;;5039648;28;20219;-48
2022/09/24 06:48:27;;;;;;;16.27;13.83;;;12.40;99.90;;;;;;5040270;28;20203;-49
2022/09/24 06:50:56;;;;;;;16.67;14.03;;;12.40;99.90;;;;;;5035391;28;20735;-49
2022/09/24 06:53:22;;;;;;;15.33;13.83;;;12.40;99.90;;;;;;5034914;28;20265;-51
2022/09/24 06:55:49;;;;;;;15.97;13.50;;;12.40;99.90;;;;;;5033116;28;20211;-47
2022/09/24 06:58:19;;;;;;;15.90;13.93;;;12.40;99.90;;;;;;5037299;28;21888;-47
2022/09/24 07:00:51;;;;;;;16.27;13.27;;;12.40;99.90;;;;;;5038886;28;20188;-47
2022/09/24 07:03:18;;;;;;;17.23;14.50;;;12.40;99.90;;;;;;5028577;28;20203;-47
2022/09/24 07:05:45;;;;;;;16.67;14.93;;;12.40;99.90;;;;;;5042671;28;20259;-53
2022/09/24 07:08:13;;;;;;;17.67;15.30;;;12.40;99.90;;;;;;5028461;28;20246;-46
2022/09/24 07:10:43;;;;;;;19.37;15.37;;;12.40;99.90;;;;;;5039795;28;20191;-51
2022/09/24 07:13:10;;;;;;;17.53;15.23;;;12.40;99.90;;;;;;5038882;28;20202;-51
2022/09/24 07:15:37;;;;;;;18.07;16.10;;;12.30;99.90;;;;;;5039623;28;20233;-48
2022/09/24 07:18:04;;;;;;;19.17;15.10;;;12.30;99.90;;;;;;5033505;28;20268;-47
2022/09/24 07:20:32;;;;;;;22.10;16.43;;;12.40;99.90;;;;;;5053876;28;20667;-46
2022/09/24 07:22:59;;;;;;;18.87;16.87;;;12.40;99.90;;;;;;5027154;28;20282;-49
2022/09/24 07:25:27;;;;;;;18.97;16.77;;;12.40;99.90;;;;;;5047165;28;20209;-47
2022/09/24 07:27:54;;;;;;;18.53;16.10;;;12.40;99.90;;;;;;5043765;28;20227;-51
2022/09/24 07:30:21;;;;;;;19.67;16.63;;;12.30;99.90;;;;;;5040030;28;20218;-47
2022/09/24 07:32:53;;;;;;;19.47;17.50;;;12.40;99.90;;;;;;5040566;28;20202;-47
2022/09/24 07:35:20;;;;;;;19.43;16.63;;;12.40;99.90;;;;;;5042845;28;20219;-49
2022/09/24 07:37:47;;;;;;;20.13;16.50;;;12.40;99.90;;;;;;5029166;28;20207;-48
2022/09/24 07:40:14;;;;;;;19.33;17.10;;;12.40;99.90;;;;;;5036683;28;20223;-51
2022/09/24 07:42:47;;;;;;;19.33;17.20;;;12.30;99.90;;;;;;5047994;28;20215;-47
2022/09/24 07:45:16;;;;;;;21.13;16.90;;;12.30;99.90;;;;;;5037546;28;20966;-51
2022/09/24 07:47:43;;;;;;;23.37;17.33;;;12.40;99.90;;;;;;5042617;28;20207;-49
2022/09/24 07:50:10;;;;;;;21.23;17.33;;;12.30;99.90;;;;;;5039198;28;20187;-48
2022/09/24 07:52:37;;;;;;;23.20;17.43;;;12.40;99.90;;;;;;5034350;28;20204;-47
2022/09/24 07:55:04;;;;;;;20.47;17.07;;;12.40;99.90;;;;;;5039058;28;20222;-46
2022/09/24 07:57:32;;;;;;;20.13;17.83;;;12.40;99.90;;;;;;5042688;28;20584;-46
2022/09/24 08:00:00;;;;;;;20.03;16.93;;;12.40;99.90;;;;;;5046145;28;20250;-48
2022/09/24 08:02:27;;;;;;;20.57;17.53;;;12.40;99.90;;;;;;5045189;28;20246;-49
2022/09/24 08:04:54;;;;;;;22.17;17.47;;;12.40;99.90;;;;;;5039568;28;20258;-46
2022/09/24 08:07:21;;;;;;;20.37;17.50;;;12.40;99.90;;;;;;5028529;28;20242;-48
2022/09/24 08:09:47;;;;;;;20.30;17.13;;;12.40;99.90;;;;;;5045388;28;20664;-48
2022/09/24 08:12:14;;;;;;;17.77;15.50;;;12.40;99.90;;;;;;5043553;28;21032;-46
2022/09/24 08:14:42;;;;;;;20.63;16.30;;;12.40;99.90;;;;;;5043197;28;20732;-48
2022/09/24 08:17:10;;;;;;;19.20;15.63;;;12.40;99.90;;;;;;5039960;28;20318;-50
2022/09/24 08:19:38;;;;;;;17.27;15.33;;;12.40;99.90;;;;;;5044744;28;20195;-48
2022/09/24 08:22:07;;;;;;;17.43;15.60;;;12.40;99.90;;;;;;5041609;28;20203;-49
2022/09/24 08:24:33;;;;;;;18.60;16.27;;;12.40;99.90;;;;;;5030315;28;20195;-47
2022/09/24 08:27:00;;;;;;;18.70;15.80;;;12.50;99.90;;;;;;5037082;28;20230;-45
2022/09/24 08:29:27;;;;;;;17.73;15.83;;;12.40;99.90;;;;;;5051232;28;20210;-46
2022/09/24 08:31:53;;;;;;;17.27;14.97;;;12.40;99.90;;;;;;5045508;28;20202;-49
2022/09/24 08:34:22;;;;;;;18.73;16.10;;;12.50;99.90;;;;;;5041604;28;20226;-46
2022/09/24 08:36:49;;;;;;;20.40;15.90;;;12.50;99.90;;;;;;5035142;28;20223;-52
2022/09/24 08:39:16;;;;;;;19.50;15.80;;;12.50;99.90;;;;;;5029741;28;20896;-48
2022/09/24 08:41:52;;;;;;;19.33;16.33;;;12.50;99.90;;;;;;5044572;28;20191;-46
2022/09/24 08:47:24;;;;;;;20.70;16.00;;;12.60;99.90;;;;;;5035890;28;20249;-50
2022/09/24 08:50:01;;;;;;;20.23;16.97;;;12.50;99.90;;;;;;5044319;28;20199;-50
2022/09/24 08:52:44;;;;;;;20.67;16.50;;;12.60;99.90;;;;;;5043036;28;20202;-48
2022/09/24 08:55:20;;;;;;;22.80;17.83;;;12.60;99.90;;;;;;5023038;28;20904;-46
2022/09/24 08:57:57;;;;;;;22.93;17.73;;;12.60;99.90;;;;;;5042779;28;20199;-50
2022/09/24 09:00:24;;;;;;;21.37;16.93;;;12.60;99.90;;;;;;5041725;28;20290;-46
2022/09/24 09:02:59;;;;;;;23.57;18.40;;;12.70;99.90;;;;;;5040593;28;20231;-48
2022/09/24 09:05:47;;;;;;;21.27;17.23;;;12.70;99.90;;;;;;5041365;28;20201;-46
2022/09/24 09:08:21;;;;;;;19.57;16.43;;;12.80;99.90;;;;;;5039722;28;20195;-45
2022/09/24 09:11:15;;;;;;;20.43;16.80;;;12.80;99.90;;;;;;5025965;28;20829;-49
2022/09/24 09:13:45;;;;;;;20.47;17.17;;;12.70;99.90;;;;;;5043095;28;20214;-52
2022/09/24 09:16:21;;;;;;;20.83;17.30;;;12.80;99.90;;;;;;5036013;28;20228;-48
2022/09/24 09:18:51;;;;;;;19.50;16.47;;;12.80;99.90;;;;;;5041857;28;20219;-52
2022/09/24 09:21:27;;;;;;;21.27;16.97;;;12.80;99.90;;;;;;5041256;28;20203;-50
2022/09/24 09:23:56;;;;;;;19.83;16.93;;;12.80;99.90;;;;;;5038055;28;20822;-45
2022/09/24 09:26:26;;;;;;;19.53;17.43;;;12.80;99.90;;;;;;5027529;28;23864;-48
2022/09/24 09:28:57;;;;;;;20.83;17.33;;;12.80;99.90;;;;;;5042845;28;20668;-50
2022/09/24 09:31:32;;;;;;;22.30;18.03;;;12.90;99.90;;;;;;5045740;28;20219;-46
2022/09/24 09:34:30;;;;;;;21.53;17.93;;;12.90;99.90;;;;;;5039515;28;20727;-46
2022/09/24 09:37:12;;;;;;;22.87;17.50;;;13.00;99.90;;;;;;5039945;28;20268;-49
2022/09/24 09:39:48;;;;;;;20.00;17.43;;;13.10;99.90;;;;;;5045107;28;20206;-47
2022/09/24 09:42:25;;;;;;;22.43;18.43;;;13.10;99.90;;;;;;5037060;28;20213;-49
2022/09/24 09:44:53;;;;;;;21.90;17.70;;;13.20;99.90;;;;;;5040188;28;20213;-51
2022/09/24 09:47:26;;;;;;;20.90;18.23;;;13.20;99.90;;;;;;5039258;28;20226;-47
2022/09/24 09:49:57;;;;;;;19.30;17.23;;;13.20;99.90;;;;;;5046743;28;20260;-46
2022/09/24 09:52:29;;;;;;;19.10;17.00;;;13.20;99.90;;;;;;5042817;28;20180;-48
2022/09/24 09:54:57;;;;;;;22.40;18.60;;;13.30;99.90;;;;;;5038914;28;20219;-50
2022/09/24 09:57:25;;;;;;;19.37;17.03;;;13.30;99.90;;;;;;5027159;28;20226;-46
2022/09/24 09:59:54;;;;;;;22.63;18.73;;;13.20;99.90;;;;;;5042545;28;20577;-50
2022/09/24 10:02:25;;;;;;;22.00;18.13;;;13.20;99.90;;;;;;5038108;28;20257;-48
2022/09/24 10:04:55;;;;;;;21.93;17.13;;;13.30;99.90;;;;;;5040344;28;20214;-46
2022/09/24 10:07:22;;;;;;;19.97;16.67;;;13.20;99.90;;;;;;5039548;28;20230;-47
2022/09/24 10:10:00;;;;;;;20.63;18.43;;;13.30;99.90;;;;;;5040500;28;20200;-50
2022/09/24 10:12:27;;;;;;;21.30;17.37;;;13.20;99.90;;;;;;5036255;28;20210;-47
2022/09/24 10:14:59;;;;;;;20.70;17.50;;;13.20;99.90;;;;;;5037685;28;20884;-49
2022/09/24 10:17:30;;;;;;;23.77;18.77;;;13.30;99.90;;;;;;5050753;28;20223;-47
2022/09/24 10:19:57;;;;;;;22.47;18.07;;;13.30;99.90;;;;;;5034488;28;20274;-51
2022/09/24 10:22:26;;;;;;;22.90;20.50;;;13.30;99.90;;;;;;5038823;28;20451;-47
2022/09/24 10:24:57;;;;;;;24.13;19.97;;;13.40;99.90;;;;;;5037209;28;20487;-44
2022/09/24 10:27:31;;;;;;;23.17;18.23;;;13.40;99.90;;;;;;5048665;28;20222;-48
2022/09/24 10:32:47;;;;;;;25.05;22.35;;;13.40;99.90;;;;;;5044179;28;20481;-49
2022/09/24 10:35:22;;;;;;;22.03;19.73;;;13.70;99.90;;;;;;5038531;28;20211;-49
2022/09/24 10:37:54;;;;;;;21.80;17.83;;;13.60;99.90;;;;;;5040551;28;20588;-51
2022/09/24 10:40:27;;;;;;;19.90;17.50;;;13.60;99.90;;;;;;5038799;28;20915;-47
2022/09/24 10:42:59;;;;;;;23.87;20.10;;;13.60;99.90;;;;;;5045229;28;20255;-44
2022/09/24 10:45:45;;;;;;;23.40;19.17;;;13.50;99.90;;;;;;5043648;28;20928;-45
2022/09/24 10:48:19;;;;;;;23.87;19.43;;;13.60;99.90;;;;;;5018514;28;20230;-46
2022/09/24 10:50:53;;;;;;;25.37;19.80;;;13.60;99.90;;;;;;5050905;28;20727;-48
2022/09/24 10:53:31;;;;;;;25.07;20.50;;;13.60;99.90;;;;;;5039686;28;20195;-46
2022/09/24 10:56:08;;;;;;;26.23;20.93;;;13.60;99.90;;;;;;5033947;28;20222;-44
2022/09/24 10:58:52;;;;;;;24.53;19.97;;;13.60;99.90;;;;;;5020872;28;20567;-48
2022/09/24 11:01:26;;;;;;;24.03;19.93;;;13.70;99.90;;;;;;5035872;28;20239;-49
2022/09/24 11:04:32;;;;;;;26.43;19.77;;;13.70;99.90;;;;;;5031491;28;20199;-49
2022/09/24 11:07:27;;;;;;;23.70;20.03;;;13.70;99.90;;;;;;4976087;28;20233;-46
2022/09/24 11:10:00;;;;;;;26.20;21.53;;;13.70;99.90;;;;;;5030361;28;20752;-45
2022/09/24 11:12:35;;;;;;;27.00;20.43;;;13.70;99.90;;;;;;5045018;28;20664;-47
2022/09/24 11:15:18;;;;;;;27.17;22.63;;;13.80;99.90;;;;;;5030107;28;20229;-49
2022/09/24 11:18:00;;;;;;;29.20;22.37;;;13.80;99.90;;;;;;5039687;28;20217;-47
2022/09/24 11:20:33;;;;;;;27.63;21.33;;;13.80;99.90;;;;;;5031173;28;20226;-47
2022/09/24 11:23:32;;;;;;;30.37;22.03;;;13.80;99.90;;;;;;5043223;28;20206;-49
2022/09/24 11:26:07;;;;;;;27.83;21.43;;;13.80;99.90;;;;;;5043742;28;20218;-49
2022/09/24 11:28:57;;;;;;;26.13;21.43;;;13.80;99.90;;;;;;5034764;28;20305;-51
2022/09/24 11:31:34;;;;;;;30.87;23.03;;;13.80;99.90;;;;;;5029855;28;20312;-45
2022/09/24 11:34:15;;;;;;;28.80;20.90;;;13.90;99.90;;;;;;5043248;28;20211;-47
2022/09/24 11:36:55;;;;;;;29.70;22.27;;;13.90;99.90;;;;;;5039801;28;20221;-47
2022/09/24 11:39:40;;;;;;;28.03;21.90;;;13.90;99.90;;;;;;5042452;28;20199;-45
2022/09/24 11:42:17;;;;;;;29.67;22.80;;;13.90;99.90;;;;;;5040837;28;20206;-46
2022/09/24 11:45:15;;;;;;;27.93;21.87;;;14.00;99.90;;;;;;5040328;28;20236;-44
2022/09/24 11:48:00;;;;;;;28.77;21.97;;;14.00;99.90;;;;;;5037166;28;20367;-44
2022/09/24 11:50:40;;;;;;;28.30;22.50;;;13.90;99.90;;;;;;5035823;28;20275;-47
2022/09/24 11:53:13;;;;;;;26.70;21.87;;;13.90;99.90;;;;;;5045513;28;20226;-46
2022/09/24 11:55:46;;;;;;;28.43;23.30;;;13.90;99.90;;;;;;5042648;28;20219;-49
2022/09/24 11:58:17;;;;;;;26.33;21.97;;;13.90;99.90;;;;;;5039899;28;20278;-45
2022/09/24 12:00:51;;;;;;;29.60;23.07;;;13.80;99.90;;;;;;5046995;28;20199;-44
2022/09/24 12:03:22;;;;;;;26.23;21.97;;;13.80;99.90;;;;;;5029713;28;20579;-48
2022/09/24 12:05:59;;;;;;;28.30;22.73;;;13.80;99.90;;;;;;5036264;28;20223;-45
2022/09/24 12:08:32;;;;;;;31.93;22.13;;;13.80;99.90;;;;;;5041087;28;20195;-46
2022/09/24 12:11:04;;;;;;;31.73;23.53;;;13.80;99.90;;;;;;5045230;28;20561;-45
2022/09/24 12:13:36;;;;;;;25.67;21.67;;;13.80;99.90;;;;;;5043337;28;20211;-47
2022/09/24 12:16:10;;;;;;;34.10;27.02;;;13.80;99.90;;;;;;5043852;28;20581;-47
2022/09/24 12:18:44;;;;;;;30.60;23.53;;;13.90;99.90;;;;;;5033697;28;20211;-47
2022/09/24 12:21:17;;;;;;;30.67;23.60;;;14.00;99.90;;;;;;5038296;28;20630;-50
2022/09/24 12:23:46;;;;;;;30.90;23.87;;;13.90;99.90;;;;;;5037883;28;20282;-49
2022/09/24 12:26:16;;;;;;;31.83;23.33;;;13.90;99.90;;;;;;5043685;28;20277;-46
2022/09/24 12:34:39;;;;;;;34.47;23.63;;;13.90;99.90;;;;;;5038544;28;20861;-50
2022/09/24 12:37:09;;;;;;;31.63;23.77;;;13.90;99.90;;;;;;5049397;28;20210;-46
2022/09/24 12:39:48;;;;;;;33.33;24.93;;;13.90;99.90;;;;;;5041266;28;20179;-50
2022/09/24 12:42:17;;;;;;;28.70;22.97;;;13.90;99.90;;;;;;5042298;28;20191;-45
2022/09/24 12:44:47;;;;;;;29.57;23.60;;;13.90;99.90;;;;;;5033948;28;20606;-47
2022/09/24 12:47:22;;;;;;;31.63;24.30;;;13.90;99.90;;;;;;5031279;28;20227;-51
2022/09/24 12:49:53;;;;;;;30.73;23.83;;;13.90;99.90;;;;;;5039571;28;20199;-45
2022/09/24 12:52:27;;;;;;;30.83;23.87;;;13.90;99.90;;;;;;5041873;28;20558;-49
2022/09/24 12:54:58;;;;;;;30.03;22.43;;;13.90;99.90;;;;;;5044405;28;20191;-50
2022/09/24 12:57:27;;;;;;;29.17;22.20;;;13.90;99.90;;;;;;5040781;28;20557;-47
2022/09/24 12:59:56;;;;;;;30.40;23.10;;;13.90;99.90;;;;;;5042756;28;20743;-45
2022/09/24 13:02:27;;;;;;;34.07;23.80;;;13.90;99.90;;;;;;5026885;28;20215;-45
2022/09/24 13:05:16;;;;;;;32.10;22.47;;;13.90;99.90;;;;;;5015241;28;20210;-45
2022/09/24 13:07:54;;;;;;;54.97;29.40;;;14.00;99.90;;;;;;5037969;28;20223;-50
2022/09/24 13:10:27;;;;;;;30.13;22.73;;;13.90;99.90;;;;;;5039109;28;20217;-50